Time;durP1;ratioP1;P1;durP2;ratioP2;P2;SDS_P1;SDS_P2;PMS_P1;PMS_P2;Temp;Humidity;BMP_temperature;BMP_pressure;BME280_temperature;BME280_humidity;BME280_pressure;Samples;Min_cycle;Max_cycle;Signal;HPM_P1;HPM_P2
2021/06/12 06:02:33;;;;;;;12.37;7.87;;;;;;;20.48;62.34;100019.77;1536563;91;26709;-49
2021/06/12 06:05:00;;;;;;;13.88;8.50;;;;;;;20.67;61.64;100015.98;1545568;91;26692;-48
2021/06/12 06:07:26;;;;;;;10.40;7.78;;;;;;;20.94;62.33;100012.98;1545563;91;26502;-49
2021/06/12 06:09:53;;;;;;;13.75;8.35;;;;;;;21.28;62.13;100014.88;1536286;91;25742;-50
2021/06/12 06:12:19;;;;;;;12.45;7.72;;;;;;;21.48;60.32;100011.82;1559222;90;25710;-49
2021/06/12 06:14:46;;;;;;;8.88;7.12;;;;;;;21.55;59.87;100011.83;1534660;91;27442;-49
2021/06/12 06:17:12;;;;;;;7.95;7.15;;;;;;;21.56;59.19;100005.94;1535733;91;25889;-50
2021/06/12 06:19:38;;;;;;;10.13;6.97;;;;;;;21.66;58.97;100004.39;1541089;91;25846;-52
2021/06/12 06:22:05;;;;;;;7.97;6.67;;;;;;;21.86;59.21;100005.38;1546374;91;25809;-51
2021/06/12 06:24:31;;;;;;;7.33;6.30;;;;;;;22.12;59.04;100003.60;1554872;89;25889;-49
2021/06/12 06:26:58;;;;;;;7.58;6.78;;;;;;;22.29;58.24;100004.02;1552147;90;27426;-48
2021/06/12 06:29:24;;;;;;;8.28;7.05;;;;;;;22.35;57.15;100001.04;1547339;91;25822;-48
2021/06/12 06:31:51;;;;;;;8.20;6.58;;;;;;;22.37;56.72;99998.09;1552518;90;25712;-49
2021/06/12 06:34:17;;;;;;;8.70;6.67;;;;;;;22.40;56.67;100006.15;1559224;90;26357;-49
2021/06/12 06:36:44;;;;;;;8.28;6.42;;;;;;;22.43;56.48;100005.96;1560198;90;25919;-48
2021/06/12 06:39:10;;;;;;;7.35;6.15;;;;;;;22.53;57.03;100011.44;1544782;90;27055;-50
2021/06/12 06:44:10;;;;;;;7.30;5.85;;;;;;;22.91;56.81;100006.80;1545475;91;25961;-48
2021/06/12 06:46:37;;;;;;;7.70;5.45;;;;;;;23.12;56.36;100007.31;1547546;91;25728;-50
2021/06/12 06:49:03;;;;;;;9.50;5.80;;;;;;;23.39;55.65;100005.41;1544119;91;25938;-49
2021/06/12 06:51:29;;;;;;;7.33;4.90;;;;;;;23.64;54.23;99999.73;1547813;91;27064;-51
2021/06/12 06:53:56;;;;;;;8.93;5.30;;;;;;;23.88;53.99;99999.98;1516563;92;26423;-52
2021/06/12 06:56:22;;;;;;;6.15;5.00;;;;;;;24.02;52.71;100002.03;1557217;91;25780;-50
2021/06/12 06:58:48;;;;;;;8.23;5.12;;;;;;;24.10;52.91;100005.50;1544584;91;25862;-51
2021/06/12 07:01:15;;;;;;;6.55;5.03;;;;;;;24.26;52.81;100002.19;1547926;91;25702;-52
2021/06/12 07:03:41;;;;;;;6.62;4.70;;;;;;;24.36;51.93;100001.30;1558849;91;27343;-51
2021/06/12 07:06:08;;;;;;;7.60;4.53;;;;;;;24.38;50.96;99995.36;1535236;91;25802;-51
2021/06/12 07:08:35;;;;;;;7.72;5.40;;;;;;;24.53;51.69;99995.39;1538969;91;25911;-51
2021/06/12 07:11:01;;;;;;;8.63;5.17;;;;;;;24.83;51.37;99992.52;1544239;91;27869;-49
2021/06/12 07:13:28;;;;;;;6.72;4.72;;;;;;;25.08;51.19;99992.80;1542077;91;25749;-51
2021/06/12 07:15:54;;;;;;;8.65;5.42;;;;;;;25.34;50.11;99987.92;1522002;91;27348;-52
2021/06/12 07:18:21;;;;;;;7.10;4.75;;;;;;;25.50;48.53;99991.44;1534472;92;25923;-51
2021/06/12 07:20:47;;;;;;;7.50;5.58;;;;;;;25.61;48.79;99984.37;1543852;92;25866;-53
2021/06/12 07:23:16;;;;;;;5.78;4.92;;;;;;;25.86;48.93;99982.59;1542219;91;25759;-53
2021/06/12 07:25:46;;;;;;;6.23;4.40;;;;;;;26.27;48.79;99977.92;1542407;91;25902;-52
2021/06/12 07:28:14;;;;;;;6.53;3.90;;;;;;;26.71;48.81;99982.85;1524307;92;28209;-52
2021/06/12 07:30:42;;;;;;;6.37;4.30;;;;;;;27.12;47.54;99981.59;1538527;92;25958;-50
2021/06/12 07:33:11;;;;;;;3.70;3.40;;;;;;;27.28;46.29;99975.34;1533132;91;25959;-50
2021/06/12 07:35:38;;;;;;;3.62;3.33;;;;;;;27.37;45.34;99978.29;1556227;90;25866;-52
2021/06/12 07:38:05;;;;;;;3.80;3.35;;;;;;;27.51;44.81;99971.61;1537888;91;25820;-51
2021/06/12 07:40:33;;;;;;;6.17;3.47;;;;;;;27.64;43.79;99967.55;1520816;92;27981;-53
2021/06/12 07:42:59;;;;;;;4.83;3.55;;;;;;;27.77;43.96;99966.25;1526133;92;25873;-52
2021/06/12 07:45:26;;;;;;;4.25;3.12;;;;;;;28.04;43.42;99970.75;1533273;92;25878;-50
2021/06/12 07:47:54;;;;;;;5.65;3.60;;;;;;;28.26;42.87;99961.23;1535300;91;26421;-52
2021/06/12 07:50:21;;;;;;;4.67;3.52;;;;;;;28.50;42.87;99957.59;1560709;90;25815;-52
2021/06/12 07:52:47;;;;;;;7.42;5.78;;;;;;;28.82;42.26;99956.69;1542429;91;28079;-50
2021/06/12 07:55:15;;;;;;;7.10;4.50;;;;;;;29.01;41.53;99957.74;1547655;90;26069;-50
2021/06/12 07:57:41;;;;;;;5.22;3.47;;;;;;;29.21;40.65;99956.77;1541612;91;25876;-52
2021/06/12 08:00:09;;;;;;;7.40;4.28;;;;;;;29.35;40.57;99956.30;1539674;91;25885;-53
2021/06/12 08:02:37;;;;;;;3.95;3.33;;;;;;;29.24;39.05;99953.86;1537791;91;25659;-51
2021/06/12 08:05:06;;;;;;;7.67;3.72;;;;;;;28.99;38.65;99955.22;1538135;91;27444;-49
2021/06/12 08:07:32;;;;;;;;;;;;;;;28.78;38.57;99941.34;1552382;91;25898;-50
2021/06/12 08:10:02;;;;;;;6.28;3.70;;;;;;;28.84;39.62;99947.31;1552061;91;26098;-49
2021/06/12 08:12:27;;;;;;;6.30;4.10;;;;;;;29.08;39.13;99940.01;1551209;91;26076;-51
2021/06/12 08:14:53;;;;;;;5.70;3.90;;;;;;;28.99;38.68;99942.07;1565577;90;25913;-52
2021/06/12 08:17:23;;;;;;;5.80;4.12;;;;;;;28.79;38.54;99948.45;1582166;90;27391;-52
2021/06/12 08:19:49;;;;;;;3.77;3.47;;;;;;;28.67;38.63;99949.98;1585243;89;25723;-50
2021/06/12 08:22:19;;;;;;;4.28;3.77;;;;;;;28.51;37.97;99943.24;1543127;90;25875;-49
2021/06/12 08:24:45;;;;;;;5.50;4.40;;;;;;;28.27;38.42;99934.38;1540925;91;25909;-51
2021/06/12 08:27:11;;;;;;;9.63;6.78;;;;;;;28.26;39.28;99934.20;1534545;91;25935;-49
2021/06/12 08:29:38;;;;;;;6.47;5.17;;;;;;;28.46;39.82;99936.06;1544618;91;27406;-48
2021/06/12 08:32:06;;;;;;;5.33;4.47;;;;;;;28.53;38.58;99930.28;1533496;91;25873;-55
2021/06/12 08:34:33;;;;;;;4.17;3.42;;;;;;;28.40;38.85;99926.09;1561830;90;26564;-52
2021/06/12 08:37:02;;;;;;;4.37;3.98;;;;;;;28.30;38.15;99923.78;1562117;90;26277;-52
2021/06/12 08:39:28;;;;;;;5.08;4.30;;;;;;;28.02;38.04;99922.55;1564160;89;25845;-53
2021/06/12 08:41:55;;;;;;;5.50;3.70;;;;;;;27.74;38.04;99926.84;1568170;90;28050;-53
2021/06/12 08:44:24;;;;;;;4.22;3.83;;;;;;;27.51;38.69;99925.78;1565614;90;26526;-52
2021/06/12 08:46:51;;;;;;;;;;;;;;;27.48;38.92;99920.33;1558533;90;25911;-51
2021/06/12 08:49:18;;;;;;;5.78;3.67;;;;;;;27.33;39.21;99922.69;1562401;90;25697;-51
2021/06/12 08:51:45;;;;;;;4.37;3.98;;;;;;;27.34;39.67;99925.62;1558177;90;25901;-53
2021/06/12 08:54:18;;;;;;;10.55;4.65;;;;;;;27.37;39.57;99917.81;1567122;89;27322;-50
2021/06/12 08:56:49;;;;;;;5.75;3.90;;;;;;;27.54;39.79;99914.44;1577819;90;25987;-49
2021/06/12 08:59:16;;;;;;;5.28;3.83;;;;;;;27.83;39.92;99910.93;1565845;90;25732;-52
2021/06/12 09:01:45;;;;;;;4.78;3.92;;;;;;;28.04;39.63;99904.81;1553413;90;27848;-52
2021/06/12 09:04:33;;;;;;;5.40;3.90;;;;;;;28.27;38.88;99908.59;1541500;91;25919;-51
2021/06/12 09:07:28;;;;;;;9.95;4.33;;;;;;;28.13;38.39;99902.81;1542882;91;28078;-49
2021/06/12 09:09:57;;;;;;;5.78;3.80;;;;;;;28.25;38.36;99903.47;1535168;91;26014;-49
2021/06/12 09:12:48;;;;;;;6.10;3.85;;;;;;;28.24;38.18;99899.11;1537618;91;26618;-49
2021/06/12 09:15:18;;;;;;;8.08;4.45;;;;;;;28.29;38.26;99899.19;1520334;92;26320;-57
2021/06/12 09:17:51;;;;;;;4.50;4.10;;;;;;;28.22;37.98;99900.16;1524412;92;25603;-51
2021/06/12 09:20:31;;;;;;;7.08;4.03;;;;;;;28.16;38.13;99894.19;1528278;92;27440;-52
2021/06/12 09:23:20;;;;;;;5.12;3.98;;;;;;;28.10;38.07;99891.95;1498330;92;25895;-47
2021/06/12 09:25:48;;;;;;;6.12;5.53;;;;;;;28.03;38.08;99892.16;1511738;93;26010;-52
2021/06/12 09:28:15;;;;;;;4.78;4.10;;;;;;;27.90;38.08;99892.67;1520098;92;26594;-52
2021/06/12 09:30:42;;;;;;;6.87;4.05;;;;;;;27.88;38.12;99891.72;1515164;92;25877;-51
2021/06/12 09:33:09;;;;;;;6.42;3.83;;;;;;;27.90;38.51;99885.73;1507996;93;27445;-51
2021/06/12 09:35:42;;;;;;;6.35;4.35;;;;;;;27.97;38.78;99884.78;1525070;92;25792;-48
2021/06/12 09:38:28;;;;;;;6.55;3.80;;;;;;;28.09;38.41;99882.66;1541011;92;25873;-49
2021/06/12 09:40:55;;;;;;;5.15;4.15;;;;;;;28.03;37.82;99891.38;1523278;92;25916;-51
2021/06/12 09:43:30;;;;;;;4.83;3.77;;;;;;;27.87;37.68;99876.88;1514119;92;25693;-51
2021/06/12 09:45:57;;;;;;;7.00;4.35;;;;;;;27.73;38.15;99880.20;1530303;91;26885;-49
2021/06/12 09:48:24;;;;;;;4.33;3.35;;;;;;;27.73;38.63;99882.97;1529108;91;26553;-52
2021/06/12 09:51:13;;;;;;;5.30;3.70;;;;;;;27.79;38.52;99876.88;1502713;93;25855;-48
2021/06/12 09:53:54;;;;;;;6.05;3.80;;;;;;;27.77;38.27;99881.52;1530330;92;26600;-51
2021/06/12 09:56:21;;;;;;;8.45;4.00;;;;;;;27.72;37.88;99875.08;1522869;92;25787;-50
2021/06/12 09:58:48;;;;;;;4.28;3.85;;;;;;;27.50;37.97;99873.48;1535472;91;27423;-49
2021/06/12 10:01:18;;;;;;;7.55;4.17;;;;;;;27.39;38.34;99873.11;1544781;91;25983;-52
2021/06/12 10:03:44;;;;;;;5.47;4.05;;;;;;;27.28;38.17;99874.00;1536077;90;25794;-51
2021/06/12 10:06:21;;;;;;;5.50;4.25;;;;;;;27.02;38.29;99866.85;1539151;91;26689;-57
2021/06/12 10:08:49;;;;;;;4.47;4.08;;;;;;;26.80;38.56;99861.02;1519815;92;25987;-54
2021/06/12 10:11:19;;;;;;;8.03;4.97;;;;;;;26.83;39.11;99857.97;1521216;90;27317;-59
2021/06/12 10:13:47;;;;;;;11.33;4.37;;;;;;;26.81;39.00;99852.84;1538380;89;26028;-61
2021/06/12 10:16:15;;;;;;;8.40;4.62;;;;;;;27.02;39.88;99852.98;1537880;91;25713;-60
2021/06/12 10:18:45;;;;;;;4.50;4.10;;;;;;;27.26;39.27;99843.69;1541495;91;33218;-59
2021/06/12 10:21:13;;;;;;;5.00;4.10;;;;;;;27.53;39.16;99842.04;1535653;91;25883;-60
2021/06/12 10:23:42;;;;;;;5.30;4.65;;;;;;;27.80;39.47;99825.67;1536074;91;27368;-59
2021/06/12 10:26:13;;;;;;;6.87;3.42;;;;;;;28.26;38.74;99824.99;1540290;91;25928;-65
2021/06/12 10:28:39;;;;;;;8.58;3.35;;;;;;;28.51;38.05;99829.82;1540622;91;25943;-59
2021/06/12 10:31:20;;;;;;;4.62;3.10;;;;;;;28.78;37.46;99831.42;1542690;91;25853;-65
2021/06/12 10:33:49;;;;;;;7.35;4.00;;;;;;;29.18;37.81;99818.42;1555419;91;25859;-64
2021/06/12 10:36:23;;;;;;;4.65;3.42;;;;;;;29.59;36.30;99817.44;1559111;91;27322;-59
2021/06/12 10:38:51;;;;;;;6.72;3.60;;;;;;;29.84;36.54;99810.20;1552960;91;25838;-60
2021/06/12 10:41:24;;;;;;;6.67;3.37;;;;;;;30.09;35.74;99810.69;1547610;91;25966;-60
2021/06/12 10:43:55;;;;;;;3.58;3.27;;;;;;;30.05;35.09;99808.63;1550647;91;25814;-59
2021/06/12 10:46:34;;;;;;;6.58;3.20;;;;;;;30.09;34.76;99795.36;1555081;90;25725;-59
2021/06/12 10:49:04;;;;;;;5.87;3.70;;;;;;;30.07;34.37;99784.48;1565745;89;27806;-61
2021/06/12 10:51:41;;;;;;;8.35;3.30;;;;;;;29.98;34.05;99787.40;1565786;90;25976;-57
2021/06/12 10:54:19;;;;;;;4.17;3.55;;;;;;;29.86;34.51;99786.84;1560298;89;25849;-59
2021/06/12 10:56:51;;;;;;;5.58;3.95;;;;;;;29.68;34.40;99781.89;1549684;91;34451;-59
2021/06/12 10:59:50;;;;;;;5.67;4.05;;;;;;;29.57;34.39;99775.30;1553195;91;25944;-58
2021/06/12 11:02:28;;;;;;;4.00;3.25;;;;;;;29.40;34.48;99775.31;1539939;91;27337;-65
2021/06/12 11:05:04;;;;;;;6.47;4.05;;;;;;;29.17;34.97;99774.50;1540035;91;26321;-59
2021/06/12 11:07:41;;;;;;;4.15;3.55;;;;;;;28.99;35.23;99772.89;1550491;91;25694;-60
2021/06/12 11:10:16;;;;;;;4.90;3.52;;;;;;;28.81;35.37;99765.91;1535475;91;26177;-60
2021/06/12 11:12:58;;;;;;;5.60;3.83;;;;;;;28.53;35.20;99762.00;1550444;91;25733;-59
2021/06/12 11:15:35;;;;;;;5.85;4.58;;;;;;;28.18;35.40;99756.33;1519617;92;28164;-60
2021/06/12 11:18:25;;;;;;;4.40;3.83;;;;;;;27.90;35.89;99760.06;1534903;92;26232;-59
2021/06/12 11:21:07;;;;;;;8.00;3.92;;;;;;;27.62;36.37;99751.14;1553602;91;25906;-60
2021/06/12 11:23:46;;;;;;;5.50;3.77;;;;;;;27.37;36.85;99756.16;1542932;91;25916;-60
2021/06/12 11:26:14;;;;;;;5.53;4.05;;;;;;;27.15;37.50;99746.19;1542392;91;26333;-60
2021/06/12 11:28:42;;;;;;;6.92;4.08;;;;;;;27.03;38.19;99734.42;1550501;90;27425;-58
2021/06/12 11:31:37;;;;;;;5.37;4.12;;;;;;;27.06;38.79;99724.45;1533375;91;25932;-59
2021/06/12 11:34:27;;;;;;;5.37;3.52;;;;;;;27.14;38.98;99708.56;1554891;91;26029;-60
2021/06/12 11:37:18;;;;;;;6.97;3.83;;;;;;;27.37;39.47;99703.41;1522382;91;27243;-59
2021/06/12 11:40:01;;;;;;;8.10;4.75;;;;;;;27.82;39.93;99698.19;1495611;93;25920;-59
2021/06/12 11:42:46;;;;;;;7.78;3.72;;;;;;;28.41;39.57;99699.59;1515981;93;30928;-58
2021/06/12 11:45:26;;;;;;;6.30;4.20;;;;;;;29.00;39.13;99693.12;1508362;93;26063;-61
2021/06/12 11:47:55;;;;;;;5.05;3.60;;;;;;;29.87;38.79;99701.22;1522444;92;25999;-57
2021/06/12 11:50:28;;;;;;;5.90;3.55;;;;;;;30.65;38.25;99694.56;1522460;91;25997;-59
2021/06/12 11:52:55;;;;;;;8.28;4.08;;;;;;;31.25;37.43;99686.26;1511748;93;25895;-57
2021/06/12 11:55:28;;;;;;;5.42;4.92;;;;;;;31.52;35.87;99688.11;1529133;91;27334;-62
2021/06/12 11:57:56;;;;;;;5.62;4.22;;;;;;;31.28;35.39;99671.36;1518326;93;26600;-61
2021/06/12 12:00:37;;;;;;;6.35;4.08;;;;;;;30.63;35.90;99679.52;1514489;93;25893;-64
2021/06/12 12:03:07;;;;;;;6.83;4.33;;;;;;;30.51;35.91;99674.22;1536245;92;26721;-62
2021/06/12 12:05:39;;;;;;;7.10;5.10;;;;;;;30.26;35.85;99672.44;1514799;92;25976;-61
2021/06/12 12:08:16;;;;;;;4.95;4.45;;;;;;;29.50;36.61;99678.67;1521391;92;27361;-61
2021/06/12 12:10:47;;;;;;;5.75;4.60;;;;;;;28.75;37.33;99663.97;1516073;92;25814;-61
2021/06/12 12:13:36;;;;;;;5.25;4.45;;;;;;;28.40;38.76;99655.54;1518003;92;25870;-61
2021/06/12 12:16:20;;;;;;;5.40;4.90;;;;;;;28.41;39.39;99648.77;1509428;92;25865;-61
2021/06/12 12:18:53;;;;;;;5.20;4.80;;;;;;;28.56;38.32;99656.83;1517614;92;25932;-62
2021/06/12 12:21:36;;;;;;;6.03;4.78;;;;;;;28.41;38.46;99661.28;1514666;92;26919;-61
2021/06/12 12:24:06;;;;;;;5.00;4.53;;;;;;;28.20;38.43;99655.80;1513809;92;25716;-60
2021/06/12 12:26:33;;;;;;;4.33;3.92;;;;;;;28.17;38.80;99642.17;1544695;90;25907;-61
2021/06/12 12:29:08;;;;;;;5.42;4.70;;;;;;;27.82;38.24;99648.98;1540986;91;26219;-61
2021/06/12 12:31:48;;;;;;;5.65;4.53;;;;;;;27.34;38.55;99635.48;1560217;91;25913;-60
2021/06/12 12:34:27;;;;;;;4.58;4.12;;;;;;;27.02;39.32;99638.50;1521230;92;27681;-61
2021/06/12 12:36:56;;;;;;;5.22;4.67;;;;;;;26.82;40.20;99637.27;1516025;91;26543;-61
2021/06/12 12:39:23;;;;;;;6.55;4.70;;;;;;;26.54;40.43;99639.50;1542052;91;25906;-61
2021/06/12 12:41:56;;;;;;;8.40;4.72;;;;;;;26.39;41.02;99629.98;1541405;91;25984;-62
2021/06/12 12:44:24;;;;;;;5.47;4.80;;;;;;;26.25;41.21;99622.79;1536770;91;25833;-62
2021/06/12 12:46:53;;;;;;;4.78;4.30;;;;;;;26.00;41.21;99616.44;1544564;91;27508;-60
2021/06/12 12:49:26;;;;;;;6.95;5.67;;;;;;;25.85;41.56;99622.91;1520369;92;25842;-64
2021/06/12 12:51:56;;;;;;;5.97;5.37;;;;;;;25.79;42.65;99619.07;1551441;91;25962;-66
2021/06/12 12:54:26;;;;;;;6.65;5.22;;;;;;;25.65;42.73;99627.86;1538589;91;25985;-63
2021/06/12 12:56:58;;;;;;;;;;;;;;;25.46;43.05;99628.67;1554848;91;26603;-65
2021/06/12 12:59:38;;;;;;;6.72;5.45;;;;;;;25.30;43.76;99622.45;1510009;92;27428;-63
2021/06/12 13:02:09;;;;;;;8.65;5.75;;;;;;;25.21;44.27;99613.92;1528847;89;25901;-63
2021/06/12 13:04:41;;;;;;;6.22;5.65;;;;;;;25.15;45.02;99606.72;1556294;89;26144;-59
2021/06/12 13:10:15;;;;;;;9.05;6.53;;;;;;;24.96;45.58;99604.10;1545286;90;25849;-58
2021/06/12 13:12:55;;;;;;;29.65;6.42;;;;;;;24.84;46.67;99725.80;1529530;91;26836;-59
2021/06/12 13:15:22;;;;;;;16.62;4.75;;;;;;;24.67;47.28;99692.32;1529270;91;27220;-59
2021/06/12 13:17:49;;;;;;;15.50;4.40;;;;;;;24.17;49.42;99656.54;1526471;92;25852;-59
2021/06/12 13:20:22;;;;;;;11.90;4.60;;;;;;;23.55;50.28;99641.37;1537806;92;25862;-58
2021/06/12 13:22:50;;;;;;;10.00;3.77;;;;;;;22.99;54.09;99668.37;1527799;92;26509;-58
2021/06/12 13:25:19;;;;;;;10.05;3.50;;;;;;;22.31;53.10;99669.70;1516128;91;27348;-58
2021/06/12 13:28:06;;;;;;;5.10;3.83;;;;;;;21.78;55.56;99668.19;1523867;92;25852;-57
2021/06/12 13:30:36;;;;;;;7.70;4.33;;;;;;;21.31;56.68;99686.02;1520278;92;25875;-58
2021/06/12 13:33:14;;;;;;;5.08;4.40;;;;;;;20.89;57.25;99687.84;1521351;92;26241;-58
2021/06/12 13:35:48;;;;;;;6.45;5.50;;;;;;;20.61;57.68;99703.70;1570320;89;26519;-59
2021/06/12 13:38:21;;;;;;;10.00;6.80;;;;;;;20.40;59.02;99703.09;1560208;90;28306;-59
2021/06/12 13:41:04;;;;;;;8.75;6.28;;;;;;;20.27;60.45;99706.02;1567201;90;26488;-58
2021/06/12 13:43:46;;;;;;;10.25;7.25;;;;;;;20.12;60.78;99700.47;1569245;90;26563;-59
2021/06/12 13:46:19;;;;;;;23.55;14.28;;;;;;;19.98;61.84;99712.79;1588199;87;26866;-58
2021/06/12 13:48:47;;;;;;;10.75;9.60;;;;;;;19.81;62.40;99711.55;1565980;89;25875;-59
2021/06/12 13:51:14;;;;;;;12.65;9.15;;;;;;;19.75;63.01;99714.45;1569211;89;28106;-58
2021/06/12 13:53:48;;;;;;;11.65;9.50;;;;;;;19.69;62.94;99711.27;1571059;89;25919;-56
2021/06/12 13:56:21;;;;;;;10.65;9.38;;;;;;;19.68;63.95;99715.77;1568330;89;25811;-59
2021/06/12 13:58:49;;;;;;;11.30;10.15;;;;;;;19.66;64.48;99709.29;1570956;89;26553;-59
2021/06/12 14:01:18;;;;;;;11.30;10.25;;;;;;;19.63;65.30;99707.34;1568498;90;26019;-58
2021/06/12 14:03:45;;;;;;;14.00;10.45;;;;;;;19.65;65.48;99711.05;1564615;90;28016;-58
2021/06/12 14:06:12;;;;;;;14.38;10.72;;;;;;;19.65;65.55;99701.44;1568926;89;26596;-58
2021/06/12 14:08:39;;;;;;;11.70;10.55;;;;;;;19.65;65.42;99699.50;1566990;89;25838;-59
2021/06/12 14:11:07;;;;;;;13.32;10.85;;;;;;;19.66;65.79;99688.72;1566899;90;25881;-59
2021/06/12 14:13:35;;;;;;;13.38;11.68;;;;;;;19.69;66.13;99688.55;1563756;89;25854;-59
2021/06/12 14:16:03;;;;;;;14.35;12.03;;;;;;;19.71;66.32;99688.34;1565740;89;27363;-59
2021/06/12 14:18:30;;;;;;;16.95;13.38;;;;;;;19.74;66.45;99688.17;1567292;90;25786;-59
2021/06/12 14:20:56;;;;;;;16.52;13.20;;;;;;;19.80;66.81;99681.16;1571779;89;26059;-61
2021/06/12 14:23:25;;;;;;;16.97;15.18;;;;;;;19.86;67.04;99673.36;1566717;88;25931;-59
2021/06/12 14:25:52;;;;;;;14.80;13.30;;;;;;;19.90;67.44;99669.45;1569500;89;26452;-60
2021/06/12 14:28:22;;;;;;;14.43;12.93;;;;;;;19.97;67.12;99668.66;1570991;89;27406;-59
2021/06/12 14:30:46;;;;;;;19.30;14.93;;;;;;;20.01;67.13;99667.33;1568389;89;25892;-60
2021/06/12 14:33:13;;;;;;;15.63;14.05;;;;;;;20.05;67.59;99664.77;1562924;89;25854;-59
2021/06/12 14:35:39;;;;;;;16.07;14.45;;;;;;;20.08;67.39;99653.62;1583805;88;26329;-59
2021/06/12 14:38:06;;;;;;;15.08;13.48;;;;;;;20.12;67.75;99653.02;1576630;90;26478;-60
2021/06/12 14:40:33;;;;;;;16.35;14.68;;;;;;;20.18;67.71;99657.56;1571644;89;27324;-59
2021/06/12 14:43:00;;;;;;;15.50;13.90;;;;;;;20.22;67.66;99643.24;1576340;89;26542;-59
2021/06/12 14:45:29;;;;;;;19.02;13.80;;;;;;;20.26;67.60;99646.77;1606579;88;25781;-59
2021/06/12 14:47:56;;;;;;;15.00;13.40;;;;;;;20.31;67.70;99643.06;1571287;89;25964;-59
2021/06/12 14:50:23;;;;;;;15.38;13.43;;;;;;;20.36;67.96;99636.98;1601134;89;25848;-59
2021/06/12 14:52:50;;;;;;;14.05;12.75;;;;;;;20.40;68.08;99633.63;1602997;89;27432;-59
2021/06/12 14:55:16;;;;;;;14.87;13.35;;;;;;;20.44;67.83;99625.60;1566182;90;27209;-59
2021/06/12 14:57:43;;;;;;;14.55;13.13;;;;;;;20.47;67.76;99619.92;1589974;87;25813;-59
2021/06/12 15:00:12;;;;;;;14.60;13.20;;;;;;;20.47;67.72;99619.92;1608769;87;25693;-60
2021/06/12 15:02:41;;;;;;;14.85;13.25;;;;;;;20.47;67.86;99619.33;1616868;87;33287;-60
2021/06/12 15:05:09;;;;;;;15.38;13.78;;;;;;;20.43;67.76;99621.30;1579720;88;27395;-61
2021/06/12 15:07:36;;;;;;;14.65;13.18;;;;;;;20.41;67.87;99622.26;1586099;88;25844;-59
2021/06/12 15:10:06;;;;;;;15.00;13.35;;;;;;;20.39;68.13;99618.34;1583876;88;26345;-60
2021/06/12 15:12:33;;;;;;;;;;;;;;;20.36;67.98;99613.63;1575670;88;25881;-59
2021/06/12 15:14:59;;;;;;;15.00;13.53;;;;;;;20.37;68.16;99627.57;1579473;88;26329;-60
2021/06/12 15:17:26;;;;;;;15.23;13.70;;;;;;;20.32;67.97;99617.75;1600786;87;27424;-59
2021/06/12 15:19:54;;;;;;;19.17;15.53;;;;;;;20.25;68.41;99604.80;1561508;88;26161;-60
2021/06/12 15:22:22;;;;;;;15.48;14.07;;;;;;;20.18;68.20;99591.08;1576985;87;25942;-59
2021/06/12 15:24:49;;;;;;;15.70;14.03;;;;;;;20.13;68.56;99596.36;1594593;88;25709;-60
2021/06/12 15:27:20;;;;;;;16.50;14.83;;;;;;;20.09;68.66;99594.21;1597773;88;25953;-60
2021/06/12 15:29:47;;;;;;;17.37;15.58;;;;;;;20.08;68.82;99590.48;1605539;88;28418;-60
2021/06/12 15:32:13;;;;;;;16.97;15.35;;;;;;;20.03;68.60;99579.89;1571975;90;25872;-60
2021/06/12 15:34:40;;;;;;;17.92;14.55;;;;;;;19.99;69.22;99577.70;1568875;90;25852;-61
2021/06/12 15:37:07;;;;;;;16.55;14.83;;;;;;;19.93;69.33;99582.20;1575412;90;25955;-60
2021/06/12 15:39:33;;;;;;;17.05;15.25;;;;;;;19.91;69.63;99571.44;1575706;89;25888;-60
2021/06/12 15:42:00;;;;;;;18.92;16.15;;;;;;;19.93;70.03;99567.11;1559043;89;27578;-60
2021/06/12 15:44:27;;;;;;;17.65;15.85;;;;;;;19.96;70.08;99564.19;1584791;88;25771;-58
2021/06/12 15:46:54;;;;;;;17.80;15.93;;;;;;;19.96;69.82;99560.84;1574160;89;25977;-61
2021/06/12 15:49:21;;;;;;;17.50;15.80;;;;;;;19.95;69.75;99557.92;1573343;90;26383;-60
2021/06/12 15:51:47;;;;;;;18.57;16.87;;;;;;;19.92;70.04;99554.59;1578122;89;25839;-59
2021/06/12 15:54:14;;;;;;;18.27;16.32;;;;;;;19.91;70.02;99548.11;1580674;88;27389;-57
2021/06/12 15:56:40;;;;;;;16.95;15.30;;;;;;;19.88;69.79;99547.52;1598142;88;25925;-57
2021/06/12 15:59:08;;;;;;;19.25;16.65;;;;;;;19.83;69.61;99551.42;1601008;87;25814;-58
2021/06/12 16:01:35;;;;;;;18.92;17.02;;;;;;;19.82;69.87;99554.55;1602751;88;26303;-56
2021/06/12 16:04:01;;;;;;;23.27;18.42;;;;;;;19.77;69.90;99555.14;1602003;88;26613;-58
2021/06/12 16:06:28;;;;;;;18.32;16.42;;;;;;;19.75;70.11;99557.50;1575637;88;27726;-58
2021/06/12 16:08:55;;;;;;;20.23;18.12;;;;;;;19.72;70.19;99560.98;1564279;89;25746;-59
2021/06/12 16:11:23;;;;;;;21.12;18.98;;;;;;;19.71;70.16;99569.59;1581148;89;25851;-59
2021/06/12 16:13:50;;;;;;;27.25;19.87;;;;;;;19.69;70.62;99578.22;1557500;90;25778;-59
2021/06/12 16:16:17;;;;;;;22.77;20.40;;;;;;;19.65;70.55;99576.06;1601195;88;25911;-59
2021/06/12 16:18:44;;;;;;;24.10;21.45;;;;;;;19.58;70.67;99573.27;1601974;87;27465;-58
2021/06/12 16:21:11;;;;;;;23.10;20.65;;;;;;;19.49;70.73;99573.64;1595435;87;25952;-58
2021/06/12 16:23:38;;;;;;;24.32;21.33;;;;;;;19.43;70.96;99576.58;1601977;88;25756;-58
2021/06/12 16:26:05;;;;;;;22.20;19.40;;;;;;;19.40;71.30;99570.48;1573388;89;26623;-58
2021/06/12 16:28:31;;;;;;;24.43;21.07;;;;;;;19.35;71.65;99571.64;1568441;89;25753;-58
2021/06/12 16:30:58;;;;;;;23.32;21.02;;;;;;;19.29;71.68;99558.69;1588362;88;27030;-59
2021/06/12 16:33:24;;;;;;;22.30;20.02;;;;;;;19.25;72.12;99553.78;1577317;88;25800;-58
2021/06/12 16:35:51;;;;;;;24.67;20.08;;;;;;;19.23;72.25;99552.80;1622646;87;25694;-58
2021/06/12 16:38:19;;;;;;;23.20;20.72;;;;;;;19.16;72.37;99543.18;1607753;88;26674;-58
2021/06/12 16:40:46;;;;;;;26.12;20.85;;;;;;;19.12;75.05;99539.62;1608160;87;25843;-58
2021/06/12 16:43:15;;;;;;;23.85;21.20;;;;;;;19.09;75.80;99545.30;1600387;88;27456;-58
2021/06/12 16:45:41;;;;;;;31.05;23.95;;;;;;;19.06;76.32;99537.84;1610576;88;25710;-58
2021/06/12 16:48:10;;;;;;;27.27;23.38;;;;;;;19.03;76.67;99532.56;1600191;88;26123;-59
2021/06/12 16:50:36;;;;;;;25.02;22.22;;;;;;;18.99;76.95;99531.74;1599634;88;25866;-58
2021/06/12 16:53:03;;;;;;;27.50;22.55;;;;;;;18.93;76.97;99527.78;1598461;88;25724;-58
2021/06/12 17:00:42;;;;;;;25.52;22.82;;;;;;;18.81;77.50;99522.61;1581508;90;25935;-61
2021/06/12 17:03:09;;;;;;;27.55;24.37;;;;;;;18.76;77.62;99515.56;1578122;90;25939;-58
2021/06/12 17:05:35;;;;;;;27.73;24.30;;;;;;;18.76;77.75;99518.30;1575038;90;25859;-59
2021/06/12 17:08:03;;;;;;;33.48;25.30;;;;;;;18.77;77.35;99533.55;1547277;90;27336;-57
2021/06/12 17:10:39;;;;;;;15.50;13.25;;;;;;;18.77;77.38;99544.52;1562536;90;25946;-57
2021/06/12 17:13:10;;;;;;;13.40;10.82;;;;;;;18.71;76.06;99543.32;1553032;90;25876;-57
2021/06/12 17:15:37;;;;;;;12.55;11.10;;;;;;;18.63;75.69;99540.33;1556021;90;26108;-57
2021/06/12 17:18:05;;;;;;;12.53;9.50;;;;;;;18.56;75.58;99551.22;1556203;90;25793;-56
2021/06/12 17:20:34;;;;;;;15.50;9.43;;;;;;;18.46;75.32;99540.41;1554480;91;28075;-57
2021/06/12 17:23:00;;;;;;;13.73;8.90;;;;;;;18.39;75.27;99554.84;1548602;91;27208;-57
2021/06/12 17:25:29;;;;;;;11.75;9.15;;;;;;;18.28;75.72;99551.22;1536582;91;25782;-58
2021/06/12 17:27:57;;;;;;;10.87;9.83;;;;;;;18.14;75.69;99547.01;1548838;91;25920;-56
2021/06/12 17:30:28;;;;;;;13.25;10.50;;;;;;;18.04;76.26;99543.78;1544548;91;26468;-57
2021/06/12 17:32:52;;;;;;;13.08;11.55;;;;;;;17.99;76.61;99537.88;1556708;91;27548;-55
2021/06/12 17:35:19;;;;;;;13.38;12.18;;;;;;;17.95;76.83;99540.59;1549725;90;25872;-55
2021/06/12 17:37:45;;;;;;;14.65;13.15;;;;;;;17.92;77.24;99541.34;1575241;90;26158;-58
2021/06/12 17:40:13;;;;;;;15.23;13.65;;;;;;;17.89;77.47;99535.25;1558523;91;26040;-58
2021/06/12 17:42:40;;;;;;;18.87;14.07;;;;;;;17.85;77.46;99539.29;1560110;91;25912;-57
2021/06/12 17:45:09;;;;;;;19.20;17.23;;;;;;;17.84;77.84;99541.03;1565918;89;27363;-56
2021/06/12 17:47:36;;;;;;;17.27;14.50;;;;;;;17.79;77.72;99538.64;1607868;87;25727;-57
2021/06/12 17:50:07;;;;;;;20.35;14.60;;;;;;;17.78;77.97;99537.08;1605725;87;26022;-58
2021/06/12 17:52:33;;;;;;;16.67;14.55;;;;;;;17.76;78.18;99533.91;1588172;88;25791;-58